sensor_id;sensor_type;location;lat;lon;timestamp;temperature;humidity
7325;DHT22;3703;48.016;7.802;2022-07-29T00:00:30;21.70;1.00
7325;DHT22;3703;48.016;7.802;2022-07-29T00:03:18;21.70;1.00
7325;DHT22;3703;48.016;7.802;2022-07-29T00:06:07;21.70;1.00
7325;DHT22;3703;48.016;7.802;2022-07-29T00:08:55;21.70;1.00
7325;DHT22;3703;48.016;7.802;2022-07-29T00:11:42;21.90;1.00
7325;DHT22;3703;48.016;7.802;2022-07-29T00:14:30;22.10;1.00
7325;DHT22;3703;48.016;7.802;2022-07-29T00:17:18;22.30;1.00
7325;DHT22;3703;48.016;7.802;2022-07-29T00:20:07;22.40;1.00
7325;DHT22;3703;48.016;7.802;2022-07-29T00:22:57;22.50;1.00
7325;DHT22;3703;48.016;7.802;2022-07-29T00:25:44;22.40;1.00
7325;DHT22;3703;48.016;7.802;2022-07-29T00:28:32;22.20;1.00
7325;DHT22;3703;48.016;7.802;2022-07-29T00:31:20;22.00;1.00
7325;DHT22;3703;48.016;7.802;2022-07-29T00:34:07;22.00;1.00
7325;DHT22;3703;48.016;7.802;2022-07-29T00:37:15;22.00;1.00
7325;DHT22;3703;48.016;7.802;2022-07-29T00:40:04;22.20;1.00
7325;DHT22;3703;48.016;7.802;2022-07-29T00:42:53;22.20;1.00
7325;DHT22;3703;48.016;7.802;2022-07-29T00:45:40;22.10;1.00
7325;DHT22;3703;48.016;7.802;2022-07-29T00:48:28;22.30;1.00
7325;DHT22;3703;48.016;7.802;2022-07-29T00:51:16;22.30;1.00
7325;DHT22;3703;48.016;7.802;2022-07-29T00:54:04;22.30;1.00
7325;DHT22;3703;48.016;7.802;2022-07-29T00:56:56;22.20;1.00
7325;DHT22;3703;48.016;7.802;2022-07-29T00:59:45;22.10;1.00
7325;DHT22;3703;48.016;7.802;2022-07-29T01:02:32;22.20;1.00
7325;DHT22;3703;48.016;7.802;2022-07-29T01:05:21;22.30;1.00
7325;DHT22;3703;48.016;7.802;2022-07-29T01:08:12;22.30;1.00
7325;DHT22;3703;48.016;7.802;2022-07-29T01:11:02;22.40;1.00
7325;DHT22;3703;48.016;7.802;2022-07-29T01:13:51;22.40;1.00
7325;DHT22;3703;48.016;7.802;2022-07-29T01:16:44;22.20;1.00
7325;DHT22;3703;48.016;7.802;2022-07-29T01:19:47;22.10;1.00
7325;DHT22;3703;48.016;7.802;2022-07-29T01:23:08;22.10;1.00
7325;DHT22;3703;48.016;7.802;2022-07-29T01:29:26;22.20;1.00
7325;DHT22;3703;48.016;7.802;2022-07-29T01:32:20;22.20;1.00
7325;DHT22;3703;48.016;7.802;2022-07-29T01:35:15;22.10;1.00
7325;DHT22;3703;48.016;7.802;2022-07-29T01:38:08;22.00;1.00
7325;DHT22;3703;48.016;7.802;2022-07-29T01:41:05;22.00;1.00
7325;DHT22;3703;48.016;7.802;2022-07-29T01:43:58;21.70;1.00
7325;DHT22;3703;48.016;7.802;2022-07-29T01:46:54;21.10;1.00
7325;DHT22;3703;48.016;7.802;2022-07-29T01:49:48;20.80;1.00
7325;DHT22;3703;48.016;7.802;2022-07-29T01:52:43;20.70;1.00
7325;DHT22;3703;48.016;7.802;2022-07-29T01:55:36;20.70;1.00
7325;DHT22;3703;48.016;7.802;2022-07-29T01:58:26;20.60;1.00
7325;DHT22;3703;48.016;7.802;2022-07-29T02:01:17;20.70;1.00
7325;DHT22;3703;48.016;7.802;2022-07-29T02:04:10;20.80;1.00
7325;DHT22;3703;48.016;7.802;2022-07-29T02:07:05;20.90;1.00
7325;DHT22;3703;48.016;7.802;2022-07-29T02:09:54;20.90;1.00
7325;DHT22;3703;48.016;7.802;2022-07-29T02:12:43;21.10;1.00
7325;DHT22;3703;48.016;7.802;2022-07-29T02:15:33;21.30;1.00
7325;DHT22;3703;48.016;7.802;2022-07-29T02:18:23;21.60;1.00
7325;DHT22;3703;48.016;7.802;2022-07-29T02:21:17;21.60;1.00
7325;DHT22;3703;48.016;7.802;2022-07-29T02:24:11;21.60;1.00
7325;DHT22;3703;48.016;7.802;2022-07-29T02:27:00;21.50;1.00
7325;DHT22;3703;48.016;7.802;2022-07-29T02:29:50;21.50;1.00
7325;DHT22;3703;48.016;7.802;2022-07-29T02:32:40;21.30;1.00
7325;DHT22;3703;48.016;7.802;2022-07-29T02:35:29;21.00;1.00
7325;DHT22;3703;48.016;7.802;2022-07-29T02:38:18;21.40;1.00
7325;DHT22;3703;48.016;7.802;2022-07-29T02:41:42;21.40;1.00
7325;DHT22;3703;48.016;7.802;2022-07-29T02:44:31;21.30;1.00
7325;DHT22;3703;48.016;7.802;2022-07-29T02:47:23;21.00;1.00
7325;DHT22;3703;48.016;7.802;2022-07-29T02:50:16;20.90;1.00
7325;DHT22;3703;48.016;7.802;2022-07-29T02:53:11;20.80;1.00
7325;DHT22;3703;48.016;7.802;2022-07-29T02:56:07;20.40;1.00
7325;DHT22;3703;48.016;7.802;2022-07-29T02:59:01;20.20;1.00
7325;DHT22;3703;48.016;7.802;2022-07-29T03:01:52;20.20;1.00
7325;DHT22;3703;48.016;7.802;2022-07-29T03:04:42;20.30;1.00
7325;DHT22;3703;48.016;7.802;2022-07-29T03:07:31;20.60;1.00
7325;DHT22;3703;48.016;7.802;2022-07-29T03:10:21;20.90;1.00
7325;DHT22;3703;48.016;7.802;2022-07-29T03:13:11;21.00;1.00
7325;DHT22;3703;48.016;7.802;2022-07-29T03:16:00;21.10;1.00
7325;DHT22;3703;48.016;7.802;2022-07-29T03:18:48;21.10;1.00
7325;DHT22;3703;48.016;7.802;2022-07-29T03:21:37;21.10;1.00
7325;DHT22;3703;48.016;7.802;2022-07-29T03:24:26;21.20;1.00
7325;DHT22;3703;48.016;7.802;2022-07-29T03:27:14;21.20;1.00
7325;DHT22;3703;48.016;7.802;2022-07-29T03:30:04;21.30;1.00
7325;DHT22;3703;48.016;7.802;2022-07-29T03:32:53;21.70;1.00
7325;DHT22;3703;48.016;7.802;2022-07-29T03:35:41;21.20;1.00
7325;DHT22;3703;48.016;7.802;2022-07-29T03:38:30;21.10;1.00
7325;DHT22;3703;48.016;7.802;2022-07-29T03:41:22;21.10;1.00
7325;DHT22;3703;48.016;7.802;2022-07-29T03:44:12;21.10;1.00
7325;DHT22;3703;48.016;7.802;2022-07-29T03:47:04;21.20;1.00
7325;DHT22;3703;48.016;7.802;2022-07-29T03:49:56;21.20;1.00
7325;DHT22;3703;48.016;7.802;2022-07-29T03:52:48;21.20;1.00
7325;DHT22;3703;48.016;7.802;2022-07-29T03:55:43;21.20;1.00
7325;DHT22;3703;48.016;7.802;2022-07-29T03:58:33;21.40;1.00
7325;DHT22;3703;48.016;7.802;2022-07-29T04:01:21;21.20;1.00
7325;DHT22;3703;48.016;7.802;2022-07-29T04:04:11;21.10;1.00
7325;DHT22;3703;48.016;7.802;2022-07-29T04:06:59;21.10;1.00
7325;DHT22;3703;48.016;7.802;2022-07-29T04:09:46;21.10;1.00
7325;DHT22;3703;48.016;7.802;2022-07-29T04:12:34;21.10;1.00
7325;DHT22;3703;48.016;7.802;2022-07-29T04:15:22;21.10;1.00
7325;DHT22;3703;48.016;7.802;2022-07-29T04:18:09;21.10;1.00
7325;DHT22;3703;48.016;7.802;2022-07-29T04:20:58;21.10;1.00
7325;DHT22;3703;48.016;7.802;2022-07-29T04:23:47;21.10;1.00
7325;DHT22;3703;48.016;7.802;2022-07-29T04:26:35;21.10;1.00
7325;DHT22;3703;48.016;7.802;2022-07-29T04:29:23;21.10;1.00
7325;DHT22;3703;48.016;7.802;2022-07-29T04:32:11;21.10;1.00
7325;DHT22;3703;48.016;7.802;2022-07-29T04:34:58;21.00;1.00
7325;DHT22;3703;48.016;7.802;2022-07-29T04:37:48;20.90;1.00
7325;DHT22;3703;48.016;7.802;2022-07-29T04:40:36;20.90;1.00
7325;DHT22;3703;48.016;7.802;2022-07-29T04:43:23;21.00;1.00
7325;DHT22;3703;48.016;7.802;2022-07-29T04:46:11;21.00;1.00
7325;DHT22;3703;48.016;7.802;2022-07-29T04:48:59;21.00;1.00
7325;DHT22;3703;48.016;7.802;2022-07-29T04:51:46;21.00;1.00
7325;DHT22;3703;48.016;7.802;2022-07-29T04:54:35;21.10;1.00
7325;DHT22;3703;48.016;7.802;2022-07-29T04:57:23;21.00;1.00
7325;DHT22;3703;48.016;7.802;2022-07-29T05:00:11;21.00;1.00
7325;DHT22;3703;48.016;7.802;2022-07-29T05:03:00;20.90;1.00
7325;DHT22;3703;48.016;7.802;2022-07-29T05:05:47;20.90;1.00
7325;DHT22;3703;48.016;7.802;2022-07-29T05:08:35;21.00;1.00
7325;DHT22;3703;48.016;7.802;2022-07-29T05:11:24;21.10;1.00
7325;DHT22;3703;48.016;7.802;2022-07-29T05:14:12;21.20;1.00
7325;DHT22;3703;48.016;7.802;2022-07-29T05:17:00;21.10;1.00
7325;DHT22;3703;48.016;7.802;2022-07-29T05:19:48;21.30;1.00
7325;DHT22;3703;48.016;7.802;2022-07-29T05:22:37;21.40;1.00
7325;DHT22;3703;48.016;7.802;2022-07-29T05:25:25;21.40;1.00
7325;DHT22;3703;48.016;7.802;2022-07-29T05:28:14;21.50;1.00
7325;DHT22;3703;48.016;7.802;2022-07-29T05:31:02;21.60;1.00
7325;DHT22;3703;48.016;7.802;2022-07-29T05:33:50;21.70;1.00
7325;DHT22;3703;48.016;7.802;2022-07-29T05:36:37;21.70;1.00
7325;DHT22;3703;48.016;7.802;2022-07-29T05:39:25;21.70;1.00
7325;DHT22;3703;48.016;7.802;2022-07-29T05:42:13;21.70;1.00
7325;DHT22;3703;48.016;7.802;2022-07-29T05:45:02;21.50;1.00
7325;DHT22;3703;48.016;7.802;2022-07-29T05:47:50;21.60;1.00
7325;DHT22;3703;48.016;7.802;2022-07-29T05:50:38;21.60;1.00
7325;DHT22;3703;48.016;7.802;2022-07-29T05:53:26;21.60;1.00
7325;DHT22;3703;48.016;7.802;2022-07-29T05:56:14;21.70;1.00
7325;DHT22;3703;48.016;7.802;2022-07-29T05:59:01;21.60;1.00
7325;DHT22;3703;48.016;7.802;2022-07-29T06:01:50;21.70;1.00
7325;DHT22;3703;48.016;7.802;2022-07-29T06:04:38;21.80;1.00
7325;DHT22;3703;48.016;7.802;2022-07-29T06:07:25;21.90;1.00
7325;DHT22;3703;48.016;7.802;2022-07-29T06:10:13;21.90;1.00
7325;DHT22;3703;48.016;7.802;2022-07-29T06:13:01;22.00;1.00
7325;DHT22;3703;48.016;7.802;2022-07-29T06:15:48;22.10;1.00
7325;DHT22;3703;48.016;7.802;2022-07-29T06:18:37;22.20;1.00
7325;DHT22;3703;48.016;7.802;2022-07-29T06:21:25;22.30;1.00
7325;DHT22;3703;48.016;7.802;2022-07-29T06:24:14;22.40;1.00
7325;DHT22;3703;48.016;7.802;2022-07-29T06:27:02;22.40;1.00
7325;DHT22;3703;48.016;7.802;2022-07-29T06:29:50;22.50;1.00
7325;DHT22;3703;48.016;7.802;2022-07-29T06:32:38;22.70;1.00
7325;DHT22;3703;48.016;7.802;2022-07-29T06:35:27;22.70;1.00
7325;DHT22;3703;48.016;7.802;2022-07-29T06:38:15;22.70;1.00
7325;DHT22;3703;48.016;7.802;2022-07-29T06:41:04;22.60;1.00
7325;DHT22;3703;48.016;7.802;2022-07-29T06:43:58;22.60;1.00
7325;DHT22;3703;48.016;7.802;2022-07-29T06:46:46;22.70;1.00
7325;DHT22;3703;48.016;7.802;2022-07-29T06:49:35;22.70;1.00
7325;DHT22;3703;48.016;7.802;2022-07-29T06:52:24;22.80;1.00
7325;DHT22;3703;48.016;7.802;2022-07-29T06:55:11;22.90;1.00
7325;DHT22;3703;48.016;7.802;2022-07-29T06:58:00;22.80;99.90
7325;DHT22;3703;48.016;7.802;2022-07-29T07:00:47;22.90;1.00
7325;DHT22;3703;48.016;7.802;2022-07-29T07:03:35;23.10;1.00
7325;DHT22;3703;48.016;7.802;2022-07-29T07:06:24;23.20;99.90
7325;DHT22;3703;48.016;7.802;2022-07-29T07:09:13;23.10;99.90
7325;DHT22;3703;48.016;7.802;2022-07-29T07:12:00;23.20;99.90
7325;DHT22;3703;48.016;7.802;2022-07-29T07:14:48;23.40;99.90
7325;DHT22;3703;48.016;7.802;2022-07-29T07:17:36;23.20;99.90
7325;DHT22;3703;48.016;7.802;2022-07-29T07:20:24;23.20;99.90
7325;DHT22;3703;48.016;7.802;2022-07-29T07:23:12;23.40;99.90
7325;DHT22;3703;48.016;7.802;2022-07-29T07:26:01;23.30;99.90
7325;DHT22;3703;48.016;7.802;2022-07-29T07:28:49;23.60;99.90
7325;DHT22;3703;48.016;7.802;2022-07-29T07:31:37;23.70;99.90
7325;DHT22;3703;48.016;7.802;2022-07-29T07:34:24;23.50;99.90
7325;DHT22;3703;48.016;7.802;2022-07-29T07:37:12;23.40;99.90
7325;DHT22;3703;48.016;7.802;2022-07-29T07:40:01;23.30;99.90
7325;DHT22;3703;48.016;7.802;2022-07-29T07:42:50;23.20;99.90
7325;DHT22;3703;48.016;7.802;2022-07-29T07:45:38;23.00;1.00
7325;DHT22;3703;48.016;7.802;2022-07-29T07:48:26;22.80;1.00
7325;DHT22;3703;48.016;7.802;2022-07-29T07:51:13;22.90;1.00
7325;DHT22;3703;48.016;7.802;2022-07-29T07:54:01;22.80;1.00
7325;DHT22;3703;48.016;7.802;2022-07-29T07:56:49;22.70;1.00
7325;DHT22;3703;48.016;7.802;2022-07-29T07:59:38;22.50;1.00
7325;DHT22;3703;48.016;7.802;2022-07-29T08:02:26;22.40;1.00
7325;DHT22;3703;48.016;7.802;2022-07-29T08:05:14;22.40;1.00
7325;DHT22;3703;48.016;7.802;2022-07-29T08:08:04;22.50;1.00
7325;DHT22;3703;48.016;7.802;2022-07-29T08:10:51;22.60;1.00
7325;DHT22;3703;48.016;7.802;2022-07-29T08:13:39;22.70;1.00
7325;DHT22;3703;48.016;7.802;2022-07-29T08:16:28;22.90;1.00
7325;DHT22;3703;48.016;7.802;2022-07-29T08:19:16;23.20;1.00
7325;DHT22;3703;48.016;7.802;2022-07-29T08:22:03;23.50;1.00
7325;DHT22;3703;48.016;7.802;2022-07-29T08:24:51;23.80;1.00
7325;DHT22;3703;48.016;7.802;2022-07-29T08:27:42;23.70;99.90
7325;DHT22;3703;48.016;7.802;2022-07-29T08:30:30;23.70;99.90
7325;DHT22;3703;48.016;7.802;2022-07-29T08:33:19;23.80;99.90
7325;DHT22;3703;48.016;7.802;2022-07-29T08:36:07;23.80;99.90
7325;DHT22;3703;48.016;7.802;2022-07-29T08:38:55;24.00;99.90
7325;DHT22;3703;48.016;7.802;2022-07-29T08:41:42;23.80;99.90
7325;DHT22;3703;48.016;7.802;2022-07-29T08:44:31;23.80;99.90
7325;DHT22;3703;48.016;7.802;2022-07-29T08:47:20;24.00;99.90
7325;DHT22;3703;48.016;7.802;2022-07-29T08:50:09;24.20;99.90
7325;DHT22;3703;48.016;7.802;2022-07-29T08:52:58;24.40;93.50
7325;DHT22;3703;48.016;7.802;2022-07-29T08:55:47;24.40;1.00
7325;DHT22;3703;48.016;7.802;2022-07-29T08:58:36;24.40;1.00
7325;DHT22;3703;48.016;7.802;2022-07-29T09:01:27;24.50;1.00
7325;DHT22;3703;48.016;7.802;2022-07-29T09:04:15;24.70;1.00
7325;DHT22;3703;48.016;7.802;2022-07-29T09:07:05;24.90;1.00
7325;DHT22;3703;48.016;7.802;2022-07-29T09:09:53;24.90;99.90
7325;DHT22;3703;48.016;7.802;2022-07-29T09:12:42;24.90;1.00
7325;DHT22;3703;48.016;7.802;2022-07-29T09:15:30;24.90;99.90
7325;DHT22;3703;48.016;7.802;2022-07-29T09:18:33;24.50;97.20
7325;DHT22;3703;48.016;7.802;2022-07-29T09:21:21;24.40;99.90
7325;DHT22;3703;48.016;7.802;2022-07-29T09:24:39;24.40;1.00
7325;DHT22;3703;48.016;7.802;2022-07-29T09:27:28;24.60;99.90
7325;DHT22;3703;48.016;7.802;2022-07-29T09:30:16;24.50;99.90
7325;DHT22;3703;48.016;7.802;2022-07-29T09:33:04;24.70;99.90
7325;DHT22;3703;48.016;7.802;2022-07-29T09:35:59;24.90;1.00
7325;DHT22;3703;48.016;7.802;2022-07-29T09:38:57;25.00;99.90
7325;DHT22;3703;48.016;7.802;2022-07-29T09:41:49;24.80;99.90
7325;DHT22;3703;48.016;7.802;2022-07-29T09:44:43;24.40;1.00
7325;DHT22;3703;48.016;7.802;2022-07-29T09:47:45;24.30;17.60
7325;DHT22;3703;48.016;7.802;2022-07-29T09:50:36;24.30;1.00
7325;DHT22;3703;48.016;7.802;2022-07-29T09:53:32;24.70;1.00
7325;DHT22;3703;48.016;7.802;2022-07-29T09:56:38;24.10;1.00
7325;DHT22;3703;48.016;7.802;2022-07-29T09:59:27;24.20;1.00
7325;DHT22;3703;48.016;7.802;2022-07-29T10:02:15;24.20;99.90
7325;DHT22;3703;48.016;7.802;2022-07-29T10:05:05;24.20;99.90
7325;DHT22;3703;48.016;7.802;2022-07-29T10:07:57;24.20;16.00
7325;DHT22;3703;48.016;7.802;2022-07-29T10:10:45;24.30;1.00
7325;DHT22;3703;48.016;7.802;2022-07-29T10:13:32;24.50;1.00
7325;DHT22;3703;48.016;7.802;2022-07-29T10:16:21;24.50;1.00
7325;DHT22;3703;48.016;7.802;2022-07-29T10:19:10;24.40;42.70
7325;DHT22;3703;48.016;7.802;2022-07-29T10:21:59;24.50;99.90
7325;DHT22;3703;48.016;7.802;2022-07-29T10:24:48;24.50;1.00
7325;DHT22;3703;48.016;7.802;2022-07-29T10:27:36;24.80;1.00
7325;DHT22;3703;48.016;7.802;2022-07-29T10:30:25;25.10;1.00
7325;DHT22;3703;48.016;7.802;2022-07-29T10:33:30;25.00;99.90
7325;DHT22;3703;48.016;7.802;2022-07-29T10:36:38;24.80;1.00
7325;DHT22;3703;48.016;7.802;2022-07-29T10:39:40;24.80;1.00
7325;DHT22;3703;48.016;7.802;2022-07-29T10:42:40;24.90;1.00
7325;DHT22;3703;48.016;7.802;2022-07-29T10:45:29;25.00;27.10
7325;DHT22;3703;48.016;7.802;2022-07-29T10:48:18;25.00;99.90
7325;DHT22;3703;48.016;7.802;2022-07-29T10:51:06;24.90;99.90
7325;DHT22;3703;48.016;7.802;2022-07-29T10:53:54;24.90;92.80
7325;DHT22;3703;48.016;7.802;2022-07-29T10:56:42;24.90;99.90
7325;DHT22;3703;48.016;7.802;2022-07-29T10:59:30;24.90;96.10
7325;DHT22;3703;48.016;7.802;2022-07-29T11:02:43;25.00;99.90
7325;DHT22;3703;48.016;7.802;2022-07-29T11:05:56;25.10;99.90
7325;DHT22;3703;48.016;7.802;2022-07-29T11:08:44;25.00;99.90
7325;DHT22;3703;48.016;7.802;2022-07-29T11:11:32;25.10;1.00
7325;DHT22;3703;48.016;7.802;2022-07-29T11:14:57;25.20;11.60
7325;DHT22;3703;48.016;7.802;2022-07-29T11:18:08;25.10;1.00
7325;DHT22;3703;48.016;7.802;2022-07-29T11:20:57;25.10;1.00
7325;DHT22;3703;48.016;7.802;2022-07-29T11:23:46;25.00;99.90
7325;DHT22;3703;48.016;7.802;2022-07-29T11:26:34;25.00;1.00
7325;DHT22;3703;48.016;7.802;2022-07-29T11:29:22;25.00;99.90
7325;DHT22;3703;48.016;7.802;2022-07-29T11:32:11;25.00;1.00
7325;DHT22;3703;48.016;7.802;2022-07-29T11:35:15;25.30;1.00
7325;DHT22;3703;48.016;7.802;2022-07-29T11:38:26;25.20;99.90
7325;DHT22;3703;48.016;7.802;2022-07-29T11:41:25;25.10;1.00
7325;DHT22;3703;48.016;7.802;2022-07-29T11:44:15;25.30;99.90
7325;DHT22;3703;48.016;7.802;2022-07-29T11:47:02;25.30;99.90
7325;DHT22;3703;48.016;7.802;2022-07-29T11:49:51;25.50;99.90
7325;DHT22;3703;48.016;7.802;2022-07-29T11:52:41;25.60;99.90
7325;DHT22;3703;48.016;7.802;2022-07-29T11:55:32;25.30;1.00
7325;DHT22;3703;48.016;7.802;2022-07-29T11:58:23;25.20;99.90
7325;DHT22;3703;48.016;7.802;2022-07-29T12:01:13;25.20;99.90
7325;DHT22;3703;48.016;7.802;2022-07-29T12:04:04;25.30;99.90
7325;DHT22;3703;48.016;7.802;2022-07-29T12:06:53;25.60;99.90
7325;DHT22;3703;48.016;7.802;2022-07-29T12:09:49;25.60;99.90
7325;DHT22;3703;48.016;7.802;2022-07-29T12:12:39;25.50;1.00
7325;DHT22;3703;48.016;7.802;2022-07-29T12:15:26;25.50;99.90
7325;DHT22;3703;48.016;7.802;2022-07-29T12:18:16;25.40;99.90
7325;DHT22;3703;48.016;7.802;2022-07-29T12:21:05;25.40;99.90
7325;DHT22;3703;48.016;7.802;2022-07-29T12:23:54;25.50;99.90
7325;DHT22;3703;48.016;7.802;2022-07-29T12:26:49;25.30;99.90
7325;DHT22;3703;48.016;7.802;2022-07-29T12:29:39;25.30;1.00
7325;DHT22;3703;48.016;7.802;2022-07-29T12:32:32;25.40;1.00
7325;DHT22;3703;48.016;7.802;2022-07-29T12:35:21;25.40;1.00
7325;DHT22;3703;48.016;7.802;2022-07-29T12:38:10;25.60;1.00
7325;DHT22;3703;48.016;7.802;2022-07-29T12:40:58;25.60;1.00
7325;DHT22;3703;48.016;7.802;2022-07-29T12:43:55;25.60;1.00
7325;DHT22;3703;48.016;7.802;2022-07-29T12:46:44;25.60;1.00
7325;DHT22;3703;48.016;7.802;2022-07-29T12:49:34;25.60;99.90
7325;DHT22;3703;48.016;7.802;2022-07-29T12:52:28;25.50;99.90
7325;DHT22;3703;48.016;7.802;2022-07-29T12:55:38;25.50;99.90
7325;DHT22;3703;48.016;7.802;2022-07-29T12:58:31;25.60;1.00
7325;DHT22;3703;48.016;7.802;2022-07-29T13:01:20;25.40;1.00
7325;DHT22;3703;48.016;7.802;2022-07-29T13:04:09;25.60;1.00
7325;DHT22;3703;48.016;7.802;2022-07-29T13:07:03;25.70;1.00
7325;DHT22;3703;48.016;7.802;2022-07-29T13:09:53;25.80;1.00
7325;DHT22;3703;48.016;7.802;2022-07-29T13:13:02;25.80;99.90
7325;DHT22;3703;48.016;7.802;2022-07-29T13:16:06;25.70;99.90
7325;DHT22;3703;48.016;7.802;2022-07-29T13:19:10;25.50;1.00
7325;DHT22;3703;48.016;7.802;2022-07-29T13:21:58;25.30;99.90
7325;DHT22;3703;48.016;7.802;2022-07-29T13:24:50;25.30;99.90
7325;DHT22;3703;48.016;7.802;2022-07-29T13:27:39;25.40;1.00
7325;DHT22;3703;48.016;7.802;2022-07-29T13:30:27;25.30;99.90
7325;DHT22;3703;48.016;7.802;2022-07-29T13:33:14;25.30;99.90
7325;DHT22;3703;48.016;7.802;2022-07-29T13:36:04;25.40;99.90
7325;DHT22;3703;48.016;7.802;2022-07-29T13:38:52;25.40;1.00
7325;DHT22;3703;48.016;7.802;2022-07-29T13:41:39;25.40;99.90
7325;DHT22;3703;48.016;7.802;2022-07-29T13:44:27;25.40;99.90
7325;DHT22;3703;48.016;7.802;2022-07-29T13:47:15;25.30;99.90
7325;DHT22;3703;48.016;7.802;2022-07-29T13:50:03;25.30;1.00
7325;DHT22;3703;48.016;7.802;2022-07-29T13:52:54;25.40;1.00
7325;DHT22;3703;48.016;7.802;2022-07-29T13:55:42;25.40;1.00
7325;DHT22;3703;48.016;7.802;2022-07-29T13:58:29;25.40;99.90
7325;DHT22;3703;48.016;7.802;2022-07-29T14:01:17;25.30;1.00
7325;DHT22;3703;48.016;7.802;2022-07-29T14:04:05;25.20;99.90
7325;DHT22;3703;48.016;7.802;2022-07-29T14:06:53;25.30;1.00
7325;DHT22;3703;48.016;7.802;2022-07-29T14:09:42;25.20;99.90
7325;DHT22;3703;48.016;7.802;2022-07-29T14:12:29;25.20;1.00
7325;DHT22;3703;48.016;7.802;2022-07-29T14:15:17;25.10;99.90
7325;DHT22;3703;48.016;7.802;2022-07-29T14:18:06;25.00;1.00
7325;DHT22;3703;48.016;7.802;2022-07-29T14:20:54;25.00;1.00
7325;DHT22;3703;48.016;7.802;2022-07-29T14:23:41;25.00;99.90
7325;DHT22;3703;48.016;7.802;2022-07-29T14:26:30;25.00;99.90
7325;DHT22;3703;48.016;7.802;2022-07-29T14:29:18;24.80;1.00
7325;DHT22;3703;48.016;7.802;2022-07-29T14:32:07;24.70;99.90
7325;DHT22;3703;48.016;7.802;2022-07-29T14:34:56;24.70;99.90
7325;DHT22;3703;48.016;7.802;2022-07-29T14:37:43;24.80;99.90
7325;DHT22;3703;48.016;7.802;2022-07-29T14:40:31;24.80;1.00
7325;DHT22;3703;48.016;7.802;2022-07-29T14:43:20;24.80;1.00
7325;DHT22;3703;48.016;7.802;2022-07-29T14:46:08;24.90;1.00
7325;DHT22;3703;48.016;7.802;2022-07-29T14:48:55;24.90;1.00
7325;DHT22;3703;48.016;7.802;2022-07-29T14:51:43;24.80;1.00
7325;DHT22;3703;48.016;7.802;2022-07-29T14:54:31;24.80;99.90
7325;DHT22;3703;48.016;7.802;2022-07-29T14:57:19;24.70;99.90
7325;DHT22;3703;48.016;7.802;2022-07-29T15:00:09;24.80;99.90
7325;DHT22;3703;48.016;7.802;2022-07-29T15:02:57;24.90;8.40
7325;DHT22;3703;48.016;7.802;2022-07-29T15:05:45;25.00;1.00
7325;DHT22;3703;48.016;7.802;2022-07-29T15:08:33;25.10;1.00
7325;DHT22;3703;48.016;7.802;2022-07-29T15:11:21;25.10;1.00
7325;DHT22;3703;48.016;7.802;2022-07-29T15:14:09;25.30;1.00
7325;DHT22;3703;48.016;7.802;2022-07-29T15:16:58;25.00;1.00
7325;DHT22;3703;48.016;7.802;2022-07-29T15:19:45;24.90;1.00
7325;DHT22;3703;48.016;7.802;2022-07-29T15:22:34;25.00;1.00
7325;DHT22;3703;48.016;7.802;2022-07-29T15:25:23;25.00;1.00
7325;DHT22;3703;48.016;7.802;2022-07-29T15:28:11;25.00;99.90
7325;DHT22;3703;48.016;7.802;2022-07-29T15:30:58;25.10;99.90
7325;DHT22;3703;48.016;7.802;2022-07-29T15:33:47;25.10;99.90
7325;DHT22;3703;48.016;7.802;2022-07-29T15:36:35;25.10;1.00
7325;DHT22;3703;48.016;7.802;2022-07-29T15:39:23;25.20;99.90
7325;DHT22;3703;48.016;7.802;2022-07-29T15:42:10;25.10;99.90
7325;DHT22;3703;48.016;7.802;2022-07-29T15:45:00;25.20;99.90
7325;DHT22;3703;48.016;7.802;2022-07-29T15:47:48;25.30;99.90
7325;DHT22;3703;48.016;7.802;2022-07-29T15:50:37;25.40;99.90
7325;DHT22;3703;48.016;7.802;2022-07-29T15:53:25;25.40;99.90
7325;DHT22;3703;48.016;7.802;2022-07-29T15:56:13;25.30;99.90
7325;DHT22;3703;48.016;7.802;2022-07-29T15:59:00;25.40;1.00
7325;DHT22;3703;48.016;7.802;2022-07-29T16:01:48;25.50;99.90
7325;DHT22;3703;48.016;7.802;2022-07-29T16:04:36;25.50;99.90
7325;DHT22;3703;48.016;7.802;2022-07-29T16:07:25;25.60;99.90
7325;DHT22;3703;48.016;7.802;2022-07-29T16:10:13;25.80;99.90
7325;DHT22;3703;48.016;7.802;2022-07-29T16:13:00;25.60;99.90
7325;DHT22;3703;48.016;7.802;2022-07-29T16:15:48;24.60;99.90
7325;DHT22;3703;48.016;7.802;2022-07-29T16:18:36;25.70;99.90
7325;DHT22;3703;48.016;7.802;2022-07-29T16:21:24;25.00;99.90
7325;DHT22;3703;48.016;7.802;2022-07-29T16:24:13;24.20;99.90
7325;DHT22;3703;48.016;7.802;2022-07-29T16:27:00;24.20;99.90
7325;DHT22;3703;48.016;7.802;2022-07-29T16:29:48;24.20;99.90
7325;DHT22;3703;48.016;7.802;2022-07-29T16:32:36;24.40;99.90
7325;DHT22;3703;48.016;7.802;2022-07-29T16:35:25;24.50;1.00
7325;DHT22;3703;48.016;7.802;2022-07-29T16:38:12;24.60;1.00
7325;DHT22;3703;48.016;7.802;2022-07-29T16:41:01;24.80;1.00
7325;DHT22;3703;48.016;7.802;2022-07-29T16:43:49;24.90;99.90
7325;DHT22;3703;48.016;7.802;2022-07-29T16:46:37;25.00;99.90
7325;DHT22;3703;48.016;7.802;2022-07-29T16:49:24;25.10;99.90
7325;DHT22;3703;48.016;7.802;2022-07-29T16:52:12;25.20;99.90
7325;DHT22;3703;48.016;7.802;2022-07-29T16:55:00;25.30;99.90
7325;DHT22;3703;48.016;7.802;2022-07-29T16:57:49;25.20;99.90
7325;DHT22;3703;48.016;7.802;2022-07-29T17:00:37;25.30;99.90
7325;DHT22;3703;48.016;7.802;2022-07-29T17:03:25;25.20;99.90
7325;DHT22;3703;48.016;7.802;2022-07-29T17:06:12;25.30;99.90
7325;DHT22;3703;48.016;7.802;2022-07-29T17:09:00;25.40;99.90
7325;DHT22;3703;48.016;7.802;2022-07-29T17:11:48;25.40;30.90
7325;DHT22;3703;48.016;7.802;2022-07-29T17:14:40;25.40;36.00
7325;DHT22;3703;48.016;7.802;2022-07-29T17:17:28;25.30;9.60
7325;DHT22;3703;48.016;7.802;2022-07-29T17:20:16;25.30;6.70
7325;DHT22;3703;48.016;7.802;2022-07-29T17:23:04;25.30;23.80
7325;DHT22;3703;48.016;7.802;2022-07-29T17:25:51;25.30;21.80
7325;DHT22;3703;48.016;7.802;2022-07-29T17:28:39;25.30;26.70
7325;DHT22;3703;48.016;7.802;2022-07-29T17:31:29;25.40;11.00
7325;DHT22;3703;48.016;7.802;2022-07-29T17:34:17;25.40;1.00
7325;DHT22;3703;48.016;7.802;2022-07-29T17:37:06;25.40;1.00
7325;DHT22;3703;48.016;7.802;2022-07-29T17:39:55;25.40;1.00
7325;DHT22;3703;48.016;7.802;2022-07-29T17:42:43;25.40;1.00
7325;DHT22;3703;48.016;7.802;2022-07-29T17:45:31;25.50;1.00
7325;DHT22;3703;48.016;7.802;2022-07-29T17:48:20;25.50;1.00
7325;DHT22;3703;48.016;7.802;2022-07-29T17:51:08;25.40;1.00
7325;DHT22;3703;48.016;7.802;2022-07-29T17:53:56;25.40;1.00
7325;DHT22;3703;48.016;7.802;2022-07-29T17:56:44;25.40;1.00
7325;DHT22;3703;48.016;7.802;2022-07-29T17:59:32;25.40;1.00
7325;DHT22;3703;48.016;7.802;2022-07-29T18:02:21;25.50;1.00
7325;DHT22;3703;48.016;7.802;2022-07-29T18:05:10;25.50;1.00
7325;DHT22;3703;48.016;7.802;2022-07-29T18:07:58;25.50;1.00
7325;DHT22;3703;48.016;7.802;2022-07-29T18:10:46;25.50;1.00
7325;DHT22;3703;48.016;7.802;2022-07-29T18:13:34;25.50;1.00
7325;DHT22;3703;48.016;7.802;2022-07-29T18:16:21;25.40;1.00
7325;DHT22;3703;48.016;7.802;2022-07-29T18:19:09;25.40;1.00
7325;DHT22;3703;48.016;7.802;2022-07-29T18:21:59;25.40;1.00
7325;DHT22;3703;48.016;7.802;2022-07-29T18:24:46;25.40;1.00
7325;DHT22;3703;48.016;7.802;2022-07-29T18:27:34;25.40;1.00
7325;DHT22;3703;48.016;7.802;2022-07-29T18:30:22;25.30;1.00
7325;DHT22;3703;48.016;7.802;2022-07-29T18:33:10;25.30;1.00
7325;DHT22;3703;48.016;7.802;2022-07-29T18:36:02;25.20;1.00
7325;DHT22;3703;48.016;7.802;2022-07-29T18:38:51;25.20;1.00
7325;DHT22;3703;48.016;7.802;2022-07-29T18:41:39;25.20;1.00
7325;DHT22;3703;48.016;7.802;2022-07-29T18:44:29;25.10;1.00